Flight Track Log - Related Links

Times and Time Zones

All times are in EDT time to prevent confusion due to time zone crossing. See the CPZ5750 flight status page for this flight to view local times or setup timezone preferences in your user account.

Time Position Orientation Groundspeed Altitude Reporting Facility
EDT Latitude Longitude Course Direction KTS MPH feet Rate Location/Type
Sat 07:47:41 PM 42.8522 -73.8617 319° Northwest 235 270 3,900  Level Boston Center
Sat 07:48:00 PM 42.8201 -74.2673 285° West  Level FlightAware Approximate
Sat 07:48:39 PM 42.9014 -73.9197 319° Northwest 251 289 6,600  Level Boston Center
Sat 07:49:00 PM 42.8487 -74.4254 283° West  Level FlightAware Approximate
Sat 07:49:39 PM 42.9589 -73.9892 319° Northwest 263 303 9,700  Level Boston Center
Sat 07:50:00 PM 42.8866 -74.5738 281° West  Level FlightAware Approximate
Sat 07:50:39 PM 42.9803 -74.0889 286° West 268 308 11,700  Level Boston Center
Sat 07:51:00 PM 42.9086 -74.7341 281° West  Level FlightAware Approximate
Sat 07:51:51 PM 42.9911 -74.2086 277° West 308 354 13,800  Level Boston Center
Sat 07:52:00 PM 42.9304 -74.8945 281° West  Level FlightAware Approximate
Sat 07:52:51 PM 43.0036 -74.3422 277° West 331 381 16,100  Level Boston Center
Sat 07:53:51 PM 43.0178 -74.4792 278° West 337 388 17,900 1,650 Climbing Boston Center
Sat 07:54:51 PM 43.0281 -74.5986 277° West 337 388 19,400 1,600 Climbing Boston Center
Sat 07:55:51 PM 43.0381 -74.7325 276° West 350 403 21,100 1,650 Climbing Boston Center
Sat 07:56:51 PM 43.0519 -74.8694 278° West 355 409 22,700 1,550 Climbing Boston Center
Sat 07:57:51 PM 43.0633 -75.0092 276° West 367 422 24,200 1,450 Climbing Boston Center
Sat 07:58:51 PM 43.0767 -75.1575 277° West 379 436 25,600 1,400 Climbing Boston Center
Sat 07:59:51 PM 43.0875 -75.3031 276° West 385 443 27,000 1,300 Climbing Boston Center
Sat 08:00:51 PM 43.1025 -75.4517 278° West 391 450 28,200 1,150 Climbing Boston Center
Sat 08:01:51 PM 43.1194 -75.6033 279° West 397 457 29,300 1,013 Climbing Boston Center
Sat 08:03:25 PM 43.1333 -75.8167 275° West 410 472 30,800 1,013 Climbing Toronto Center
Sat 08:04:25 PM 43.1333 -75.9833 270° West 410 472 31,900 600 Climbing Toronto Center
Sat 08:05:25 PM 43.1667 -76.1333 287° West 410 472 32,000 50 Climbing Toronto Center
Sat 08:06:25 PM 43.1667 -76.3000 270° West 410 472 32,000  Level Toronto Center
Sat 08:07:25 PM 43.1833 -76.4333 280° West 410 472 32,000  Level Toronto Center
Sat 08:08:25 PM 43.1833 -76.5833 270° West 410 472 32,000  Level Toronto Center
Sat 08:09:25 PM 43.2167 -76.7500 285° West 410 472 32,000  Level Toronto Center
Sat 08:10:25 PM 43.2333 -76.8833 280° West 410 472 32,000  Level Toronto Center
Sat 08:11:25 PM 43.2333 -77.0667 270° West 410 472 32,000  Level Toronto Center
Sat 08:12:25 PM 43.2500 -77.2000 280° West 400 460 32,000  Level Toronto Center
Sat 08:13:25 PM 43.2667 -77.3667 278° West 410 472 32,000  Level Toronto Center
Sat 08:14:25 PM 43.3000 -77.5333 285° West 410 472 32,000  Level Toronto Center
Sat 08:15:25 PM 43.3167 -77.6833 279° West 410 472 32,000  Level Toronto Center
Sat 08:16:25 PM 43.3500 -77.8167 289° West 410 472 32,000  Level Toronto Center
Sat 08:17:25 PM 43.3667 -77.9667 279° West 410 472 32,000  Level Toronto Center
Sat 08:18:25 PM 43.3833 -78.1167 279° West 410 472 32,000  Level Toronto Center
Sat 08:19:25 PM 43.4167 -78.2833 285° West 410 472 32,000  Level Toronto Center
Sat 08:20:25 PM 43.4333 -78.4333 279° West 410 472 32,000  Level Toronto Center
Sat 08:21:25 PM 43.4667 -78.5833 287° West 410 472 32,000  Level Toronto Center
Sat 08:22:25 PM 43.5000 -78.7333 287° West 410 472 32,000  Level Toronto Center
Sat 08:23:25 PM 43.5167 -78.8667 280° West 410 472 32,000  Level Toronto Center
Sat 08:24:25 PM 43.5333 -79.0333 278° West 410 472 32,000  Level Toronto Center
Sat 08:25:25 PM 43.5667 -79.1667 289° West 410 472 32,000  Level Toronto Center
Sat 08:26:25 PM 43.5833 -79.3333 278° West 410 472 32,000  Level Toronto Center
Sat 08:27:25 PM 43.6000 -79.5000 278° West 400 460 32,000  Level Toronto Center
Sat 08:28:25 PM 43.6333 -79.6500 287° West 420 483 32,000  Level Toronto Center
Sat 08:29:25 PM 43.6500 -79.8167 278° West 430 495 32,000  Level Toronto Center
Sat 08:30:25 PM 43.6667 -79.9500 280° West 410 472 32,000  Level Toronto Center
Sat 08:31:25 PM 43.7000 -80.1167 286° West 410 472 32,000  Level Toronto Center
Sat 08:32:25 PM 43.7167 -80.2833 278° West 410 472 32,000  Level Toronto Center
Sat 08:33:25 PM 43.7500 -80.4333 287° West 410 472 32,000  Level Toronto Center
Sat 08:34:25 PM 43.7667 -80.5833 279° West 410 472 32,000  Level Toronto Center
Sat 08:35:25 PM 43.7833 -80.7333 279° West 410 472 32,000  Level Toronto Center
Sat 08:36:25 PM 43.8000 -80.8833 279° West 410 472 32,000  Level Toronto Center
Sat 08:37:25 PM 43.8167 -81.0500 278° West 410 472 32,000  Level Toronto Center
Sat 08:38:25 PM 43.8333 -81.2000 279° West 410 472 32,000  Level Toronto Center
Sat 08:39:25 PM 43.8667 -81.3667 286° West 410 472 32,000  Level Toronto Center
Sat 08:40:25 PM 43.8833 -81.5000 280° West 420 483 32,000  Level Toronto Center
Sat 08:41:25 PM 43.9000 -81.7000 277° West 420 483 32,000  Level Toronto Center
Sat 08:42:25 PM 43.9333 -81.8333 289° West 420 483 32,000  Level Toronto Center
Sat 08:43:25 PM 43.9333 -82.0000 270° West 420 483 32,000  Level Toronto Center
Sat 08:44:25 PM 43.9667 -82.1500 287° West 420 483 32,000  Level Toronto Center
Sat 08:45:25 PM 43.9833 -82.3167 278° West 420 483 32,000  Level Toronto Center
Sat 08:46:25 PM 44.0000 -82.4833 278° West 420 483 32,000  Level Toronto Center
Sat 08:47:25 PM 44.0333 -82.6500 286° West 420 483 32,000  Level Toronto Center
Sat 08:48:16 PM 44.0483 -82.7914 278° West 426 490 32,000  Level Minneapolis Center
Sat 08:49:17 PM 44.0669 -82.9542 279° West 428 493 32,000  Level Minneapolis Center
Sat 08:50:19 PM 44.0869 -83.1183 280° West 430 495 32,000  Level Minneapolis Center
Sat 08:51:20 PM 44.1056 -83.2847 279° West 434 499 32,000  Level Minneapolis Center
Sat 08:52:22 PM 44.1244 -83.4531 279° West 439 505 32,000 -49 Level Minneapolis Center
Sat 08:53:23 PM 44.1433 -83.6211 279° West 441 507 31,900  Descending Minneapolis Center
Sat 08:54:25 PM 44.1625 -83.7911 279° West 444 511 32,000 435 Climbing Minneapolis Center
Sat 08:55:27 PM 44.1822 -83.9647 279° West 451 519 32,800 976 Climbing Minneapolis Center
Sat 08:56:28 PM 44.2103 -84.1692 281° West 450 518 34,000 585 Climbing Minneapolis Center
Sat 08:57:30 PM 44.2314 -84.3442 280° West 456 525 34,000  Level Minneapolis Center
Sat 08:58:31 PM 44.2533 -84.5211 280° West 463 533 34,000  Level Minneapolis Center
Sat 08:59:33 PM 44.2761 -84.6978 280° West 462 532 34,000  Level Minneapolis Center
Sat 09:00:34 PM 44.2972 -84.8736 280° West 462 532 34,000  Level Minneapolis Center
Sat 09:01:36 PM 44.3181 -85.0489 279° West 460 529 34,000  Level Minneapolis Center
Sat 09:02:38 PM 44.3394 -85.2258 280° West 460 529 34,000 390 Level Minneapolis Center
Sat 09:03:39 PM 44.3592 -85.4008 279° West 457 526 34,800 976 Climbing Minneapolis Center
Sat 09:04:41 PM 44.3842 -85.6083 280° West 450 518 36,000 585 Climbing Minneapolis Center
Sat 09:05:42 PM 44.4039 -85.7836 279° West 454 522 36,000  Level Minneapolis Center
Sat 09:06:44 PM 44.4239 -85.9619 279° West 461 531 36,000  Level Minneapolis Center
Sat 09:07:45 PM 44.4428 -86.1406 278° West 459 528 36,000  Level Minneapolis Center
Sat 09:08:47 PM 44.4622 -86.3192 279° West 460 529 36,000  Level Minneapolis Center
Sat 09:09:49 PM 44.4803 -86.4953 278° West 457 526 36,000  Level Minneapolis Center
Sat 09:10:50 PM 44.4989 -86.6689 279° West 453 521 36,000  Level Minneapolis Center
Sat 09:12:04 PM 44.5172 -86.8411 279° West 449 517 36,000  Level Minneapolis Center
Sat 09:13:06 PM 44.5397 -87.0494 279° West 451 519 36,000  Level Minneapolis Center
Sat 09:14:19 PM 44.5558 -87.2211 278° West 446 513 36,000  Level Minneapolis Center
Sat 09:15:21 PM 44.5797 -87.4628 278° West 448 516 36,000  Level Minneapolis Center
Sat 09:16:22 PM 44.5964 -87.6353 278° West 448 516 36,000  Level Minneapolis Center
Sat 09:17:24 PM 44.6136 -87.8078 278° West 446 513 36,000  Level Minneapolis Center
Sat 09:18:25 PM 44.6281 -87.9722 277° West 444 511 36,000  Level Minneapolis Center
Sat 09:19:27 PM 44.6433 -88.1428 277° West 441 507 36,000  Level Minneapolis Center
Sat 09:20:28 PM 44.6625 -88.3442 278° West 447 514 36,000  Level Minneapolis Center
Sat 09:21:30 PM 44.6772 -88.5144 277° West 444 511 36,000  Level Minneapolis Center
Sat 09:22:31 PM 44.6914 -88.6856 277° West 443 510 36,000  Level Minneapolis Center
Sat 09:23:33 PM 44.7053 -88.8558 277° West 441 507 36,000  Level Minneapolis Center
Sat 09:24:34 PM 44.7197 -89.0253 277° West 440 506 36,000  Level Minneapolis Center
Sat 09:25:35 PM 44.7317 -89.1658 277° West 437 503 36,000 -488 Level Minneapolis Center
Sat 09:26:37 PM 44.7478 -89.3636 277° West 437 503 35,000 -1,073 Descending Minneapolis Center
Sat 09:27:38 PM 44.7636 -89.5619 276° West 438 504 33,800 -934 Descending Minneapolis Center
Sat 09:28:39 PM 44.7733 -89.6783 277° West 444 511 33,100 -878 Descending Minneapolis Center
Sat 09:29:41 PM 44.7889 -89.8875 276° West 460 529 32,000 -537 Descending Minneapolis Center
Sat 09:30:42 PM 44.8039 -90.0956 276° West 461 531 32,000  Level Minneapolis Center
Sat 09:31:44 PM 44.8167 -90.2731 276° West 457 526 32,000  Level Minneapolis Center
Sat 09:32:45 PM 44.8297 -90.4503 276° West 457 526 32,000  Level Minneapolis Center
Sat 09:33:47 PM 44.8403 -90.6117 275° West 446 513 32,000  Level Minneapolis Center
Sat 09:34:48 PM 44.8547 -90.8161 276° West 447 514 32,000 -738 Level Minneapolis Center
Sat 09:35:49 PM 44.8658 -90.9942 275° West 447 514 30,500 -2,000 Descending Minneapolis Center
Sat 09:36:51 PM 44.8769 -91.1653 275° West 442 509 27,900 -2,488 Descending Minneapolis Center
Sat 09:37:52 PM 44.8869 -91.3311 275° West 432 497 25,400 -2,410 Descending Minneapolis Center
Sat 09:38:53 PM 44.8997 -91.4908 276° West 417 480 23,000 -2,244 Descending Minneapolis Center
Sat 09:39:55 PM 44.9264 -91.6372 284° West 394 453 20,800 -2,146 Descending Minneapolis Center
Sat 09:40:56 PM 44.9528 -91.7794 285° West 383 441 18,600 -2,000 Descending Minneapolis Center
Sat 09:41:58 PM 44.9808 -91.9133 287° West 363 418 16,700 -1,902 Descending Minneapolis Center
Sat 09:42:59 PM 45.0042 -92.0425 284° West 344 396 14,700 -2,164 Descending Minneapolis Center
Sat 09:44:00 PM 45.0311 -92.1894 285° West 324 373 12,300 -1,805 Descending Minneapolis Center
Sat 09:45:02 PM 45.0453 -92.3125 279° West 320 368 11,000 -732 Descending Minneapolis Center
Sat 09:46:03 PM 45.0267 -92.4311 258° West 312 359 10,800 -590 Descending Minneapolis Center
Sat 09:47:04 PM 45.0089 -92.5414 257° West 292 336 9,800 -885 Descending Minneapolis Center
Sat 09:48:05 PM 44.9922 -92.6497 258° West 283 326 9,000 -390 Descending Minneapolis Center
Sat 09:49:07 PM 44.9764 -92.7553 258° West 278 320 9,000  Level Minneapolis Center
Sat 09:50:08 PM 44.9800 -92.8642 273° West 280 322 9,000 -639 Level Minneapolis Center
Sat 09:51:09 PM 44.9831 -92.9725 272° West 278 320 7,700 -1,574 Descending Minneapolis Center
Sat 09:52:10 PM 44.9900 -93.0975 275° West 270 311 5,800 -1,805 Descending Minneapolis Center
Sat 09:53:12 PM 44.9911 -93.2022 271° West 274 315 4,000 -1,220 Descending Minneapolis Center
Sat 09:54:13 PM 44.9636 -93.2756 242° Southwest 207 238 3,300 -689 Descending Minneapolis Center

Login

Don't have an account? Register now (free) for customized features, flight alerts, and more!